sensor_id;sensor_type;location;lat;lon;timestamp;temperature;humidity
9776;DHT22;4927;52.472;13.108;2022-12-18T00:02:22;-5.20;99.90
9776;DHT22;4927;52.472;13.108;2022-12-18T00:07:28;-5.20;99.90
9776;DHT22;4927;52.472;13.108;2022-12-18T00:12:34;-5.20;99.90
9776;DHT22;4927;52.472;13.108;2022-12-18T00:17:41;-5.20;99.90
9776;DHT22;4927;52.472;13.108;2022-12-18T00:22:45;-5.30;99.90
9776;DHT22;4927;52.472;13.108;2022-12-18T00:27:51;-5.30;99.90
9776;DHT22;4927;52.472;13.108;2022-12-18T00:32:58;-5.40;99.90
9776;DHT22;4927;52.472;13.108;2022-12-18T00:38:02;-5.40;99.90
9776;DHT22;4927;52.472;13.108;2022-12-18T00:43:08;-5.40;99.90
9776;DHT22;4927;52.472;13.108;2022-12-18T00:48:15;-5.50;99.90
9776;DHT22;4927;52.472;13.108;2022-12-18T00:53:21;-5.50;99.90
9776;DHT22;4927;52.472;13.108;2022-12-18T00:58:27;-5.50;99.90
9776;DHT22;4927;52.472;13.108;2022-12-18T01:03:34;-5.60;99.90
9776;DHT22;4927;52.472;13.108;2022-12-18T01:08:40;-5.60;99.90
9776;DHT22;4927;52.472;13.108;2022-12-18T01:13:46;-5.70;99.90
9776;DHT22;4927;52.472;13.108;2022-12-18T01:18:53;-5.60;99.90
9776;DHT22;4927;52.472;13.108;2022-12-18T01:24:00;-5.60;99.90
9776;DHT22;4927;52.472;13.108;2022-12-18T01:29:06;-5.60;99.90
9776;DHT22;4927;52.472;13.108;2022-12-18T01:34:12;-5.70;99.90
9776;DHT22;4927;52.472;13.108;2022-12-18T01:39:17;-5.80;99.90
9776;DHT22;4927;52.472;13.108;2022-12-18T01:49:42;-5.60;99.90
9776;DHT22;4927;52.472;13.108;2022-12-18T01:54:49;-5.60;99.90
9776;DHT22;4927;52.472;13.108;2022-12-18T01:59:57;-5.60;99.90
9776;DHT22;4927;52.472;13.108;2022-12-18T02:05:02;-5.70;99.90
9776;DHT22;4927;52.472;13.108;2022-12-18T02:10:13;-5.70;99.90
9776;DHT22;4927;52.472;13.108;2022-12-18T02:15:26;-5.70;99.90
9776;DHT22;4927;52.472;13.108;2022-12-18T02:20:31;-5.70;99.90
9776;DHT22;4927;52.472;13.108;2022-12-18T02:30:56;-5.60;99.90
9776;DHT22;4927;52.472;13.108;2022-12-18T02:36:02;-5.70;99.90
9776;DHT22;4927;52.472;13.108;2022-12-18T02:41:09;-5.70;99.90
9776;DHT22;4927;52.472;13.108;2022-12-18T02:46:25;-5.70;99.90
9776;DHT22;4927;52.472;13.108;2022-12-18T02:51:29;-5.70;99.90
9776;DHT22;4927;52.472;13.108;2022-12-18T02:56:35;-5.60;99.90
9776;DHT22;4927;52.472;13.108;2022-12-18T03:02:01;-5.60;99.90
9776;DHT22;4927;52.472;13.108;2022-12-18T03:07:06;-5.60;99.90
9776;DHT22;4927;52.472;13.108;2022-12-18T03:12:15;-5.80;99.90
9776;DHT22;4927;52.472;13.108;2022-12-18T03:17:27;-5.90;99.90
9776;DHT22;4927;52.472;13.108;2022-12-18T03:22:33;-5.90;99.90
9776;DHT22;4927;52.472;13.108;2022-12-18T03:27:41;-6.00;99.90
9776;DHT22;4927;52.472;13.108;2022-12-18T03:33:06;-5.80;99.90
9776;DHT22;4927;52.472;13.108;2022-12-18T03:38:11;-5.80;99.90
9776;DHT22;4927;52.472;13.108;2022-12-18T03:48:39;-5.80;99.90
9776;DHT22;4927;52.472;13.108;2022-12-18T03:53:49;-5.70;99.90
9776;DHT22;4927;52.472;13.108;2022-12-18T03:58:53;-5.80;99.90
9776;DHT22;4927;52.472;13.108;2022-12-18T04:04:01;-5.70;99.90
9776;DHT22;4927;52.472;13.108;2022-12-18T04:09:07;-5.70;99.90
9776;DHT22;4927;52.472;13.108;2022-12-18T04:14:13;-5.70;99.90
9776;DHT22;4927;52.472;13.108;2022-12-18T04:19:19;-5.60;99.90
9776;DHT22;4927;52.472;13.108;2022-12-18T04:24:26;-5.60;99.90
9776;DHT22;4927;52.472;13.108;2022-12-18T04:29:32;-5.70;99.90
9776;DHT22;4927;52.472;13.108;2022-12-18T04:34:38;-5.80;99.90
9776;DHT22;4927;52.472;13.108;2022-12-18T04:39:45;-5.90;99.90
9776;DHT22;4927;52.472;13.108;2022-12-18T04:44:51;-5.90;99.90
9776;DHT22;4927;52.472;13.108;2022-12-18T04:49:57;-5.90;99.90
9776;DHT22;4927;52.472;13.108;2022-12-18T04:55:05;-5.80;99.90
9776;DHT22;4927;52.472;13.108;2022-12-18T05:00:12;-5.90;99.90
9776;DHT22;4927;52.472;13.108;2022-12-18T05:05:23;-5.90;99.90
9776;DHT22;4927;52.472;13.108;2022-12-18T05:10:30;-5.90;99.90
9776;DHT22;4927;52.472;13.108;2022-12-18T05:15:36;-6.10;99.90
9776;DHT22;4927;52.472;13.108;2022-12-18T05:20:43;-6.10;99.90
9776;DHT22;4927;52.472;13.108;2022-12-18T05:25:55;-6.10;99.90
9776;DHT22;4927;52.472;13.108;2022-12-18T05:31:01;-6.10;99.90
9776;DHT22;4927;52.472;13.108;2022-12-18T05:36:08;-6.00;99.90
9776;DHT22;4927;52.472;13.108;2022-12-18T05:41:15;-5.90;99.90
9776;DHT22;4927;52.472;13.108;2022-12-18T06:01:24;-5.90;99.90
9776;DHT22;4927;52.472;13.108;2022-12-18T06:06:43;-5.90;99.90
9776;DHT22;4927;52.472;13.108;2022-12-18T06:11:51;-6.00;99.90
9776;DHT22;4927;52.472;13.108;2022-12-18T06:16:56;-6.00;99.90
9776;DHT22;4927;52.472;13.108;2022-12-18T06:22:02;-5.90;99.90
9776;DHT22;4927;52.472;13.108;2022-12-18T06:27:13;-6.00;99.90
9776;DHT22;4927;52.472;13.108;2022-12-18T06:32:19;-6.00;99.90
9776;DHT22;4927;52.472;13.108;2022-12-18T06:37:26;-5.90;99.90
9776;DHT22;4927;52.472;13.108;2022-12-18T06:42:32;-5.90;99.90
9776;DHT22;4927;52.472;13.108;2022-12-18T06:47:38;-5.90;99.90
9776;DHT22;4927;52.472;13.108;2022-12-18T06:52:44;-5.90;99.90
9776;DHT22;4927;52.472;13.108;2022-12-18T06:57:50;-5.90;99.90
9776;DHT22;4927;52.472;13.108;2022-12-18T07:02:57;-5.80;99.90
9776;DHT22;4927;52.472;13.108;2022-12-18T07:08:03;-5.80;99.90
9776;DHT22;4927;52.472;13.108;2022-12-18T07:13:10;-5.70;99.90
9776;DHT22;4927;52.472;13.108;2022-12-18T07:18:16;-5.70;99.90
9776;DHT22;4927;52.472;13.108;2022-12-18T07:23:22;-5.80;99.90
9776;DHT22;4927;52.472;13.108;2022-12-18T07:28:29;-5.70;99.90
9776;DHT22;4927;52.472;13.108;2022-12-18T07:33:35;-5.70;99.90
9776;DHT22;4927;52.472;13.108;2022-12-18T07:38:41;-5.70;99.90
9776;DHT22;4927;52.472;13.108;2022-12-18T07:43:48;-5.60;99.90
9776;DHT22;4927;52.472;13.108;2022-12-18T07:48:54;-5.50;99.90
9776;DHT22;4927;52.472;13.108;2022-12-18T07:54:00;-5.50;99.90
9776;DHT22;4927;52.472;13.108;2022-12-18T07:59:07;-5.50;99.90
9776;DHT22;4927;52.472;13.108;2022-12-18T08:04:13;-5.40;99.90
9776;DHT22;4927;52.472;13.108;2022-12-18T08:09:19;-5.40;99.90
9776;DHT22;4927;52.472;13.108;2022-12-18T08:14:25;-5.30;99.90
9776;DHT22;4927;52.472;13.108;2022-12-18T08:19:31;-5.30;99.90
9776;DHT22;4927;52.472;13.108;2022-12-18T08:24:35;-5.30;99.90
9776;DHT22;4927;52.472;13.108;2022-12-18T08:29:42;-5.30;99.90
9776;DHT22;4927;52.472;13.108;2022-12-18T08:34:48;-5.30;99.90
9776;DHT22;4927;52.472;13.108;2022-12-18T08:39:54;-5.20;99.90
9776;DHT22;4927;52.472;13.108;2022-12-18T08:44:59;-5.10;99.90
9776;DHT22;4927;52.472;13.108;2022-12-18T08:50:08;-5.00;99.90
9776;DHT22;4927;52.472;13.108;2022-12-18T08:55:11;-5.00;99.90
9776;DHT22;4927;52.472;13.108;2022-12-18T09:00:24;-4.90;99.90
9776;DHT22;4927;52.472;13.108;2022-12-18T09:05:31;-4.80;99.90
9776;DHT22;4927;52.472;13.108;2022-12-18T09:10:42;-4.80;99.90
9776;DHT22;4927;52.472;13.108;2022-12-18T09:15:48;-4.80;99.90
9776;DHT22;4927;52.472;13.108;2022-12-18T09:20:53;-4.80;99.90
9776;DHT22;4927;52.472;13.108;2022-12-18T09:26:00;-4.70;99.90
9776;DHT22;4927;52.472;13.108;2022-12-18T09:31:07;-4.70;99.90
9776;DHT22;4927;52.472;13.108;2022-12-18T09:36:14;-4.60;99.90
9776;DHT22;4927;52.472;13.108;2022-12-18T09:41:31;-4.50;99.90
9776;DHT22;4927;52.472;13.108;2022-12-18T09:46:34;-4.50;99.90
9776;DHT22;4927;52.472;13.108;2022-12-18T09:51:41;-4.50;99.90
9776;DHT22;4927;52.472;13.108;2022-12-18T09:56:45;-4.50;99.90
9776;DHT22;4927;52.472;13.108;2022-12-18T10:01:52;-4.50;99.90
9776;DHT22;4927;52.472;13.108;2022-12-18T10:07:03;-4.50;99.90
9776;DHT22;4927;52.472;13.108;2022-12-18T10:12:17;-4.30;99.90
9776;DHT22;4927;52.472;13.108;2022-12-18T10:17:26;-4.30;99.90
9776;DHT22;4927;52.472;13.108;2022-12-18T10:22:56;-4.30;99.90
9776;DHT22;4927;52.472;13.108;2022-12-18T10:28:04;-4.30;99.90
9776;DHT22;4927;52.472;13.108;2022-12-18T10:33:05;-4.30;99.90
9776;DHT22;4927;52.472;13.108;2022-12-18T10:38:27;-4.30;99.90
9776;DHT22;4927;52.472;13.108;2022-12-18T10:43:33;-4.40;99.90
9776;DHT22;4927;52.472;13.108;2022-12-18T10:48:41;-4.30;99.90
9776;DHT22;4927;52.472;13.108;2022-12-18T10:53:50;-4.30;99.90
9776;DHT22;4927;52.472;13.108;2022-12-18T10:58:55;-4.40;99.90
9776;DHT22;4927;52.472;13.108;2022-12-18T11:04:00;-4.30;99.90
9776;DHT22;4927;52.472;13.108;2022-12-18T11:09:04;-4.30;99.90
9776;DHT22;4927;52.472;13.108;2022-12-18T11:14:14;-4.30;99.90
9776;DHT22;4927;52.472;13.108;2022-12-18T11:19:25;-4.20;99.90
9776;DHT22;4927;52.472;13.108;2022-12-18T11:24:31;-4.20;99.90
9776;DHT22;4927;52.472;13.108;2022-12-18T11:29:38;-4.20;99.90
9776;DHT22;4927;52.472;13.108;2022-12-18T11:34:45;-4.10;99.90
9776;DHT22;4927;52.472;13.108;2022-12-18T11:39:50;-4.10;99.90
9776;DHT22;4927;52.472;13.108;2022-12-18T11:44:58;-4.00;99.90
9776;DHT22;4927;52.472;13.108;2022-12-18T11:50:10;-3.90;99.90
9776;DHT22;4927;52.472;13.108;2022-12-18T11:55:14;-3.90;99.90
9776;DHT22;4927;52.472;13.108;2022-12-18T12:00:18;-3.90;99.90
9776;DHT22;4927;52.472;13.108;2022-12-18T12:05:43;-3.80;99.90
9776;DHT22;4927;52.472;13.108;2022-12-18T12:11:16;-3.70;99.90
9776;DHT22;4927;52.472;13.108;2022-12-18T12:16:25;-3.70;99.90
9776;DHT22;4927;52.472;13.108;2022-12-18T12:21:37;-3.70;99.90
9776;DHT22;4927;52.472;13.108;2022-12-18T12:42:58;-3.50;99.90
9776;DHT22;4927;52.472;13.108;2022-12-18T12:48:15;-3.50;99.90
9776;DHT22;4927;52.472;13.108;2022-12-18T12:53:22;-3.50;99.90
9776;DHT22;4927;52.472;13.108;2022-12-18T12:58:32;-3.40;99.90
9776;DHT22;4927;52.472;13.108;2022-12-18T13:03:56;-3.40;99.90
9776;DHT22;4927;52.472;13.108;2022-12-18T13:09:01;-3.50;99.90
9776;DHT22;4927;52.472;13.108;2022-12-18T13:14:10;-3.50;99.90
9776;DHT22;4927;52.472;13.108;2022-12-18T13:19:22;-3.40;99.90
9776;DHT22;4927;52.472;13.108;2022-12-18T13:24:28;-3.30;99.90
9776;DHT22;4927;52.472;13.108;2022-12-18T13:29:42;-3.40;99.90
9776;DHT22;4927;52.472;13.108;2022-12-18T13:34:47;-3.50;99.90
9776;DHT22;4927;52.472;13.108;2022-12-18T13:39:54;-3.50;99.90
9776;DHT22;4927;52.472;13.108;2022-12-18T13:45:00;-3.40;99.90
9776;DHT22;4927;52.472;13.108;2022-12-18T13:50:10;-3.50;99.90
9776;DHT22;4927;52.472;13.108;2022-12-18T13:55:16;-3.60;99.90
9776;DHT22;4927;52.472;13.108;2022-12-18T14:00:26;-3.60;99.90
9776;DHT22;4927;52.472;13.108;2022-12-18T14:05:34;-3.50;99.90
9776;DHT22;4927;52.472;13.108;2022-12-18T14:10:40;-3.60;99.90
9776;DHT22;4927;52.472;13.108;2022-12-18T14:15:46;-3.70;99.90
9776;DHT22;4927;52.472;13.108;2022-12-18T14:20:56;-3.60;99.90
9776;DHT22;4927;52.472;13.108;2022-12-18T14:26:02;-3.60;99.90
9776;DHT22;4927;52.472;13.108;2022-12-18T14:31:16;-3.60;99.90
9776;DHT22;4927;52.472;13.108;2022-12-18T14:36:15;-3.70;99.90
9776;DHT22;4927;52.472;13.108;2022-12-18T14:41:20;-3.80;99.90
9776;DHT22;4927;52.472;13.108;2022-12-18T14:46:35;-3.80;99.90
9776;DHT22;4927;52.472;13.108;2022-12-18T14:51:41;-3.80;99.90
9776;DHT22;4927;52.472;13.108;2022-12-18T14:56:48;-3.80;99.90
9776;DHT22;4927;52.472;13.108;2022-12-18T15:07:21;-3.90;99.90
9776;DHT22;4927;52.472;13.108;2022-12-18T15:12:28;-3.90;99.90
9776;DHT22;4927;52.472;13.108;2022-12-18T15:17:32;-3.90;99.90
9776;DHT22;4927;52.472;13.108;2022-12-18T15:22:38;-4.10;99.90
9776;DHT22;4927;52.472;13.108;2022-12-18T15:27:45;-4.00;99.90
9776;DHT22;4927;52.472;13.108;2022-12-18T15:32:52;-4.10;99.90
9776;DHT22;4927;52.472;13.108;2022-12-18T15:37:57;-4.10;99.90
9776;DHT22;4927;52.472;13.108;2022-12-18T15:43:04;-4.10;99.90
9776;DHT22;4927;52.472;13.108;2022-12-18T15:48:20;-4.10;99.90
9776;DHT22;4927;52.472;13.108;2022-12-18T15:53:27;-4.20;99.90
9776;DHT22;4927;52.472;13.108;2022-12-18T15:58:32;-4.20;99.90
9776;DHT22;4927;52.472;13.108;2022-12-18T16:03:38;-4.30;99.90
9776;DHT22;4927;52.472;13.108;2022-12-18T16:08:45;-4.30;99.90
9776;DHT22;4927;52.472;13.108;2022-12-18T16:13:51;-4.30;99.90
9776;DHT22;4927;52.472;13.108;2022-12-18T16:18:57;-4.40;99.90
9776;DHT22;4927;52.472;13.108;2022-12-18T16:24:04;-4.40;99.90
9776;DHT22;4927;52.472;13.108;2022-12-18T16:29:11;-4.40;99.90
9776;DHT22;4927;52.472;13.108;2022-12-18T16:34:21;-4.40;99.90
9776;DHT22;4927;52.472;13.108;2022-12-18T16:39:29;-4.40;99.90
9776;DHT22;4927;52.472;13.108;2022-12-18T16:44:35;-4.30;99.90
9776;DHT22;4927;52.472;13.108;2022-12-18T16:49:42;-4.30;99.90
9776;DHT22;4927;52.472;13.108;2022-12-18T16:54:48;-4.40;99.90
9776;DHT22;4927;52.472;13.108;2022-12-18T16:59:54;-4.30;99.90
9776;DHT22;4927;52.472;13.108;2022-12-18T17:05:01;-4.30;99.90
9776;DHT22;4927;52.472;13.108;2022-12-18T17:10:08;-4.30;99.90
9776;DHT22;4927;52.472;13.108;2022-12-18T17:15:14;-4.30;99.90
9776;DHT22;4927;52.472;13.108;2022-12-18T17:20:21;-4.40;99.90
9776;DHT22;4927;52.472;13.108;2022-12-18T17:25:27;-4.40;99.90
9776;DHT22;4927;52.472;13.108;2022-12-18T17:30:34;-4.40;99.90
9776;DHT22;4927;52.472;13.108;2022-12-18T17:35:40;-4.50;99.90
9776;DHT22;4927;52.472;13.108;2022-12-18T17:40:46;-4.60;99.90
9776;DHT22;4927;52.472;13.108;2022-12-18T17:45:53;-4.60;99.90
9776;DHT22;4927;52.472;13.108;2022-12-18T17:51:02;-4.70;99.90
9776;DHT22;4927;52.472;13.108;2022-12-18T17:56:13;-4.80;99.90
9776;DHT22;4927;52.472;13.108;2022-12-18T18:01:20;-4.80;99.90
9776;DHT22;4927;52.472;13.108;2022-12-18T18:06:25;-4.80;99.90
9776;DHT22;4927;52.472;13.108;2022-12-18T18:11:29;-4.90;99.90
9776;DHT22;4927;52.472;13.108;2022-12-18T18:16:43;-4.90;99.90
9776;DHT22;4927;52.472;13.108;2022-12-18T18:21:48;-5.00;99.90
9776;DHT22;4927;52.472;13.108;2022-12-18T18:26:54;-5.00;99.90
9776;DHT22;4927;52.472;13.108;2022-12-18T18:31:58;-5.10;99.90
9776;DHT22;4927;52.472;13.108;2022-12-18T18:37:03;-5.10;99.90
9776;DHT22;4927;52.472;13.108;2022-12-18T18:42:09;-5.00;99.90
9776;DHT22;4927;52.472;13.108;2022-12-18T18:47:16;-5.10;99.90
9776;DHT22;4927;52.472;13.108;2022-12-18T18:52:23;-5.20;99.90
9776;DHT22;4927;52.472;13.108;2022-12-18T18:57:29;-5.20;99.90
9776;DHT22;4927;52.472;13.108;2022-12-18T19:02:36;-5.30;99.90
9776;DHT22;4927;52.472;13.108;2022-12-18T19:07:42;-5.30;99.90
9776;DHT22;4927;52.472;13.108;2022-12-18T19:12:48;-5.20;99.90
9776;DHT22;4927;52.472;13.108;2022-12-18T19:17:59;-5.30;99.90
9776;DHT22;4927;52.472;13.108;2022-12-18T19:23:05;-5.20;99.90
9776;DHT22;4927;52.472;13.108;2022-12-18T19:28:12;-5.20;99.90
9776;DHT22;4927;52.472;13.108;2022-12-18T19:33:18;-5.20;99.90
9776;DHT22;4927;52.472;13.108;2022-12-18T19:38:22;-5.20;99.90
9776;DHT22;4927;52.472;13.108;2022-12-18T19:43:28;-5.20;99.90
9776;DHT22;4927;52.472;13.108;2022-12-18T19:48:35;-5.20;99.90
9776;DHT22;4927;52.472;13.108;2022-12-18T19:53:42;-5.20;99.90
9776;DHT22;4927;52.472;13.108;2022-12-18T19:58:48;-5.20;99.90
9776;DHT22;4927;52.472;13.108;2022-12-18T20:03:55;-5.20;99.90
9776;DHT22;4927;52.472;13.108;2022-12-18T20:09:03;-5.20;99.90
9776;DHT22;4927;52.472;13.108;2022-12-18T20:14:09;-5.30;99.90
9776;DHT22;4927;52.472;13.108;2022-12-18T20:19:14;-5.30;99.90
9776;DHT22;4927;52.472;13.108;2022-12-18T20:24:21;-5.30;99.90
9776;DHT22;4927;52.472;13.108;2022-12-18T20:29:25;-5.20;99.90
9776;DHT22;4927;52.472;13.108;2022-12-18T20:34:31;-5.20;99.90
9776;DHT22;4927;52.472;13.108;2022-12-18T20:39:38;-5.20;99.90
9776;DHT22;4927;52.472;13.108;2022-12-18T20:44:44;-5.20;99.90
9776;DHT22;4927;52.472;13.108;2022-12-18T20:49:51;-5.20;99.90
9776;DHT22;4927;52.472;13.108;2022-12-18T20:54:57;-5.20;99.90
9776;DHT22;4927;52.472;13.108;2022-12-18T21:00:05;-5.10;99.90
9776;DHT22;4927;52.472;13.108;2022-12-18T21:05:12;-5.10;99.90
9776;DHT22;4927;52.472;13.108;2022-12-18T21:10:19;-5.10;99.90
9776;DHT22;4927;52.472;13.108;2022-12-18T21:15:26;-5.10;99.90
9776;DHT22;4927;52.472;13.108;2022-12-18T21:20:32;-5.10;99.90
9776;DHT22;4927;52.472;13.108;2022-12-18T21:25:38;-5.10;99.90
9776;DHT22;4927;52.472;13.108;2022-12-18T21:30:45;-5.10;99.90
9776;DHT22;4927;52.472;13.108;2022-12-18T21:35:51;-5.20;99.90
9776;DHT22;4927;52.472;13.108;2022-12-18T21:40:57;-5.20;99.90
9776;DHT22;4927;52.472;13.108;2022-12-18T21:46:02;-5.20;99.90
9776;DHT22;4927;52.472;13.108;2022-12-18T21:51:08;-5.10;99.90
9776;DHT22;4927;52.472;13.108;2022-12-18T21:56:14;-5.10;99.90
9776;DHT22;4927;52.472;13.108;2022-12-18T22:01:21;-5.10;99.90
9776;DHT22;4927;52.472;13.108;2022-12-18T22:06:27;-5.10;99.90
9776;DHT22;4927;52.472;13.108;2022-12-18T22:11:33;-5.10;99.90
9776;DHT22;4927;52.472;13.108;2022-12-18T22:16:40;-5.10;99.90
9776;DHT22;4927;52.472;13.108;2022-12-18T22:21:47;-5.10;99.90
9776;DHT22;4927;52.472;13.108;2022-12-18T22:26:52;-5.00;99.90
9776;DHT22;4927;52.472;13.108;2022-12-18T22:31:59;-5.00;99.90
9776;DHT22;4927;52.472;13.108;2022-12-18T22:37:12;-5.00;99.90
9776;DHT22;4927;52.472;13.108;2022-12-18T22:42:18;-5.00;99.90
9776;DHT22;4927;52.472;13.108;2022-12-18T22:47:24;-5.10;99.90
9776;DHT22;4927;52.472;13.108;2022-12-18T22:52:31;-5.00;99.90
9776;DHT22;4927;52.472;13.108;2022-12-18T22:57:37;-5.10;99.90
9776;DHT22;4927;52.472;13.108;2022-12-18T23:03:28;-5.10;99.90
9776;DHT22;4927;52.472;13.108;2022-12-18T23:08:33;-5.20;99.90
9776;DHT22;4927;52.472;13.108;2022-12-18T23:13:39;-5.20;99.90
9776;DHT22;4927;52.472;13.108;2022-12-18T23:18:45;-5.20;99.90
9776;DHT22;4927;52.472;13.108;2022-12-18T23:23:51;-5.20;99.90
9776;DHT22;4927;52.472;13.108;2022-12-18T23:28:57;-5.20;99.90
9776;DHT22;4927;52.472;13.108;2022-12-18T23:34:04;-5.20;99.90
9776;DHT22;4927;52.472;13.108;2022-12-18T23:39:11;-5.20;99.90
9776;DHT22;4927;52.472;13.108;2022-12-18T23:44:17;-5.20;99.90
9776;DHT22;4927;52.472;13.108;2022-12-18T23:49:24;-5.20;99.90
9776;DHT22;4927;52.472;13.108;2022-12-18T23:54:34;-5.10;99.90
9776;DHT22;4927;52.472;13.108;2022-12-18T23:59:41;-5.10;99.90
